Time;durP1;ratioP1;P1;durP2;ratioP2;P2;SDS_P1;SDS_P2;PMS_P1;PMS_P2;Temp;Humidity;BMP_temperature;BMP_pressure;BME280_temperature;BME280_humidity;BME280_pressure;Samples;Min_cycle;Max_cycle;Signal;HPM_P1;HPM_P2
2021/03/12 00:02:20;;;;;;;4.90;3.33;;;6.50;99.90;;;5.03;100.00;98860.50;5025393;27;100798;-61
2021/03/12 00:04:47;;;;;;;6.10;2.70;;;6.40;99.90;;;5.04;100.00;98857.69;5026716;27;100192;-60
2021/03/12 00:07:14;;;;;;;5.17;2.70;;;6.90;99.90;;;5.02;100.00;98864.13;5025587;27;100185;-61
2021/03/12 00:09:40;;;;;;;3.23;2.73;;;6.30;99.90;;;5.03;100.00;98863.97;5026046;27;100425;-61
2021/03/12 00:12:09;;;;;;;6.83;2.70;;;6.50;99.90;;;5.03;100.00;98860.50;5026173;27;100676;-61
2021/03/12 00:14:35;;;;;;;3.80;2.43;;;6.40;99.90;;;5.03;100.00;98858.66;5025838;27;100366;-61
2021/03/12 00:17:02;;;;;;;7.87;2.27;;;6.60;99.90;;;5.02;100.00;98843.75;5026749;27;100158;-62
2021/03/12 00:19:30;;;;;;;3.87;2.17;;;6.30;99.90;;;5.04;100.00;98856.84;5007384;27;103258;-62
2021/03/12 00:21:56;;;;;;;5.17;1.93;;;6.40;99.90;;;5.02;100.00;98862.31;5026054;27;100680;-62
2021/03/12 00:24:23;;;;;;;3.07;2.00;;;6.50;99.90;;;5.04;100.00;98868.28;5025916;27;100529;-62
2021/03/12 00:26:50;;;;;;;4.57;2.07;;;6.40;99.90;;;4.99;100.00;98870.56;5007374;27;100140;-61
2021/03/12 00:29:16;;;;;;;6.93;2.13;;;6.30;99.90;;;4.95;100.00;98869.22;5025973;27;101115;-61
2021/03/12 00:31:43;;;;;;;4.33;1.67;;;6.50;99.90;;;4.95;100.00;98861.25;5006585;27;102931;-62
2021/03/12 00:34:09;;;;;;;1.90;1.30;;;6.30;99.90;;;5.05;100.00;98866.47;5026533;27;99874;-62
2021/03/12 00:36:37;;;;;;;2.60;1.23;;;5.30;99.90;;;5.07;100.00;98880.38;5025007;27;100215;-61
2021/03/12 00:39:04;;;;;;;2.30;1.40;;;6.40;99.90;;;5.07;100.00;98888.31;5025767;27;101488;-62
2021/03/12 00:41:30;;;;;;;2.13;1.10;;;6.30;99.90;;;5.05;100.00;98909.72;5026361;27;100590;-62
2021/03/12 00:44:01;;;;;;;2.87;1.10;;;6.40;99.90;;;5.05;100.00;98912.38;5024216;27;100050;-62
2021/03/12 00:46:36;;;;;;;3.13;1.40;;;6.20;99.90;;;5.04;100.00;98917.81;5040903;27;100074;-62
2021/03/12 00:49:02;;;;;;;5.77;1.53;;;6.30;99.90;;;5.07;100.00;98937.91;5006282;27;103411;-61
2021/03/12 00:51:32;;;;;;;4.03;1.83;;;6.30;99.90;;;5.00;100.00;98950.94;5023338;27;101234;-61
2021/03/12 00:54:05;;;;;;;4.63;1.50;;;6.90;99.90;;;4.89;100.00;98953.84;5027036;27;100246;-62
2021/03/12 00:56:32;;;;;;;3.50;1.70;;;6.30;99.90;;;4.75;100.00;98951.72;5023444;27;100362;-62
2021/03/12 00:59:02;;;;;;;4.20;1.07;;;6.30;99.90;;;4.60;100.00;98956.75;5022783;27;103042;-61
2021/03/12 01:01:34;;;;;;;2.37;0.83;;;7.50;99.90;;;4.46;100.00;98960.75;5040383;27;102182;-61
2021/03/12 01:04:01;;;;;;;3.10;1.10;;;6.80;99.90;;;4.42;100.00;98964.72;5025239;27;100205;-61
2021/03/12 01:06:28;;;;;;;4.27;1.40;;;6.30;99.90;;;4.34;100.00;98956.66;5006970;27;100283;-62
2021/03/12 01:08:58;;;;;;;4.53;0.80;;;6.00;99.90;;;4.27;100.00;98964.41;5006556;27;102472;-60
2021/03/12 01:11:32;;;;;;;4.57;1.20;;;5.80;99.90;;;4.24;100.00;98943.50;5005901;27;101570;-60
2021/03/12 01:13:59;;;;;;;4.77;1.90;;;5.90;99.90;;;4.20;100.00;98941.31;5005883;27;100175;-62
2021/03/12 01:16:32;;;;;;;5.50;1.83;;;5.70;99.90;;;4.11;100.00;98945.69;5022774;27;100280;-60
2021/03/12 01:19:01;;;;;;;4.37;2.00;;;5.00;99.90;;;4.04;100.00;98941.16;5022817;27;100825;-61
2021/03/12 01:21:31;;;;;;;2.93;1.33;;;5.80;99.90;;;4.05;100.00;98956.88;5022987;27;102220;-61
2021/03/12 01:23:59;;;;;;;3.90;1.13;;;5.60;99.90;;;4.05;100.00;98948.13;5025094;27;99929;-62
2021/03/12 01:26:29;;;;;;;3.23;1.33;;;5.60;99.90;;;4.06;100.00;98953.25;5040342;27;100311;-60
2021/03/12 01:29:09;;;;;;;3.27;1.20;;;5.60;99.90;;;4.06;100.00;98947.13;5005463;27;101485;-60
2021/03/12 01:31:52;;;;;;;3.77;1.43;;;5.70;99.90;;;4.06;100.00;98947.13;5005783;27;103174;-61
2021/03/12 01:34:22;;;;;;;2.27;1.00;;;5.50;99.90;;;4.05;100.00;98956.88;5005992;27;100237;-58
2021/03/12 01:36:49;;;;;;;1.63;1.13;;;5.60;99.90;;;4.03;100.00;98958.84;5040240;27;100198;-61
2021/03/12 01:39:16;;;;;;;4.23;1.40;;;5.50;99.90;;;4.00;100.00;98960.94;5004997;27;103419;-60
2021/03/12 01:41:45;;;;;;;6.13;1.20;;;6.30;99.90;;;3.97;100.00;98960.25;5024795;27;100582;-60
2021/03/12 01:44:18;;;;;;;5.00;1.00;;;5.40;99.90;;;3.94;100.00;98947.34;5039997;27;100368;-60
2021/03/12 01:46:48;;;;;;;2.73;1.17;;;5.40;99.90;;;3.89;100.00;98940.81;5039333;27;100183;-60
2021/03/12 01:49:14;;;;;;;2.50;0.73;;;5.50;99.90;;;3.89;100.00;98944.31;5007925;27;102717;-61
2021/03/12 01:51:41;;;;;;;1.80;1.10;;;5.40;99.90;;;3.85;100.00;98952.66;5008431;27;102976;-60
2021/03/12 01:54:08;;;;;;;6.83;1.17;;;5.30;99.90;;;3.77;100.00;98916.38;5040228;27;100485;-61
2021/03/12 01:56:35;;;;;;;3.03;1.20;;;5.30;99.90;;;3.67;100.00;98922.72;5006052;27;100134;-59
2021/03/12 01:59:10;;;;;;;2.50;0.77;;;5.30;99.90;;;3.64;100.00;98915.91;5005685;27;102918;-61
2021/03/12 02:01:44;;;;;;;1.33;0.60;;;5.40;99.90;;;3.59;100.00;98923.44;5005931;27;102877;-60
2021/03/12 02:04:21;;;;;;;2.80;0.97;;;5.20;99.90;;;3.55;100.00;98924.72;5004999;27;100503;-60
2021/03/12 02:07:14;;;;;;;3.20;0.73;;;5.30;99.90;;;3.56;100.00;98923.75;5019767;27;99946;-59
2021/03/12 02:09:48;;;;;;;2.33;1.00;;;5.10;99.90;;;3.61;100.00;98929.41;5005381;27;102552;-60
2021/03/12 02:12:24;;;;;;;3.53;0.80;;;5.00;99.90;;;3.62;100.00;98925.78;5023615;27;100517;-61
2021/03/12 02:14:59;;;;;;;4.03;0.67;;;5.10;99.90;;;3.58;100.00;98935.00;5006570;27;100168;-60
2021/03/12 02:17:33;;;;;;;1.63;0.87;;;5.10;99.90;;;3.59;100.00;98931.38;5042990;27;100344;-61
2021/03/12 02:20:20;;;;;;;1.57;0.80;;;5.10;99.90;;;3.60;100.00;98944.44;5026434;27;102519;-59
2021/03/12 02:22:57;;;;;;;3.13;1.27;;;5.00;99.90;;;3.60;100.00;98941.81;5027871;27;101134;-60
2021/03/12 02:25:25;;;;;;;0.83;0.60;;;5.20;99.90;;;3.63;100.00;98939.84;5043646;27;100335;-60
2021/03/12 02:28:05;;;;;;;2.37;0.87;;;5.20;99.90;;;3.57;100.00;98949.22;5026708;27;100396;-62
2021/03/12 02:30:32;;;;;;;3.13;0.90;;;5.10;99.90;;;3.57;100.00;98951.88;5008066;27;103473;-60
2021/03/12 02:33:01;;;;;;;4.70;1.00;;;5.20;99.90;;;3.57;100.00;98958.00;5008868;27;102418;-62
2021/03/12 02:35:37;;;;;;;3.03;0.93;;;5.30;99.90;;;3.58;100.00;98957.00;5009004;27;100272;-62
2021/03/12 02:38:27;;;;;;;1.47;1.07;;;5.10;99.90;;;3.60;100.00;98957.66;5009071;27;100353;-62
2021/03/12 02:40:59;;;;;;;2.80;1.20;;;5.20;99.90;;;3.64;100.00;98958.22;5027149;27;101894;-62
2021/03/12 02:43:31;;;;;;;1.73;1.30;;;5.30;99.90;;;3.71;100.00;98961.94;5009206;27;101509;-62
2021/03/12 02:45:58;;;;;;;4.03;1.80;;;5.10;99.90;;;3.76;100.00;98962.34;5028033;27;100076;-63
2021/03/12 02:48:28;;;;;;;3.00;1.93;;;6.20;99.90;;;3.80;100.00;98954.94;5009349;27;100238;-62
2021/03/12 02:50:54;;;;;;;2.03;1.63;;;5.30;99.90;;;3.85;100.00;98957.97;5008267;27;102748;-63
2021/03/12 02:53:25;;;;;;;3.70;2.00;;;5.20;99.90;;;3.91;100.00;98965.31;5008208;27;100862;-63
2021/03/12 02:55:58;;;;;;;5.60;1.90;;;5.40;99.90;;;3.93;100.00;98961.56;5008074;27;100458;-63
2021/03/12 02:58:27;;;;;;;2.97;1.80;;;5.40;99.90;;;3.92;100.00;98962.53;5041640;27;100163;-63
2021/03/12 03:01:02;;;;;;;2.20;1.40;;;6.30;99.90;;;3.93;100.00;98966.84;5027011;27;100740;-63
2021/03/12 03:03:53;;;;;;;2.93;1.43;;;5.50;99.90;;;3.93;100.00;98971.31;5027733;27;100601;-64
2021/03/12 03:06:37;;;;;;;5.80;1.83;;;5.40;99.90;;;3.87;100.00;98966.59;5008295;27;100744;-64
2021/03/12 03:09:05;;;;;;;3.07;1.10;;;5.50;99.90;;;3.87;100.00;98978.00;5042572;27;100316;-61
2021/03/12 03:11:34;;;;;;;0.90;0.50;;;5.50;99.90;;;3.84;100.00;98974.81;5025192;27;101588;-62
2021/03/12 03:14:01;;;;;;;1.40;0.90;;;5.60;99.90;;;3.78;100.00;98978.06;5008464;27;103152;-63
2021/03/12 03:16:35;;;;;;;1.67;0.70;;;5.40;99.90;;;3.75;100.00;98967.78;5025350;27;99945;-63
2021/03/12 03:19:03;;;;;;;0.70;0.60;;;5.30;99.90;;;3.71;100.00;98982.28;5042015;27;100829;-64
2021/03/12 03:21:30;;;;;;;1.70;0.60;;;6.70;99.90;;;3.66;100.00;98995.09;5007283;27;102749;-63
2021/03/12 03:23:57;;;;;;;0.80;0.60;;;5.30;99.90;;;3.65;100.00;98991.63;5026556;27;101533;-63
2021/03/12 03:26:25;;;;;;;1.33;0.70;;;5.30;99.90;;;3.61;100.00;98991.06;5006713;27;100183;-64
2021/03/12 03:28:53;;;;;;;0.53;0.53;;;5.30;99.90;;;3.59;100.00;99000.97;5008179;27;100201;-64
2021/03/12 03:31:23;;;;;;;1.93;0.80;;;5.20;99.90;;;3.60;100.00;99002.63;5007924;27;102910;-63
2021/03/12 03:33:50;;;;;;;1.53;1.10;;;5.40;99.90;;;3.59;100.00;99002.78;5007893;27;102771;-64
2021/03/12 03:36:18;;;;;;;1.27;0.70;;;5.30;99.90;;;3.62;100.00;98994.56;5007807;27;100040;-64
2021/03/12 03:38:44;;;;;;;3.13;0.60;;;5.40;99.90;;;3.61;100.00;99003.47;5008583;27;100217;-63
2021/03/12 03:41:16;;;;;;;0.87;0.60;;;5.30;99.90;;;3.60;100.00;99005.28;5007483;27;103336;-64
2021/03/12 03:43:49;;;;;;;1.40;0.73;;;5.30;99.90;;;3.63;100.00;99019.19;5007529;27;101756;-64
2021/03/12 03:46:22;;;;;;;2.43;0.93;;;5.20;99.90;;;3.66;100.00;99021.56;5006983;27;100224;-64
2021/03/12 03:48:52;;;;;;;2.37;0.77;;;5.20;99.90;;;3.74;100.00;99024.31;5007763;27;100220;-64
2021/03/12 03:51:33;;;;;;;2.77;0.90;;;5.30;99.90;;;3.82;100.00;99032.38;5041322;27;103012;-64
2021/03/12 03:54:02;;;;;;;2.73;1.17;;;5.30;99.90;;;3.86;100.00;99036.38;5024051;27;102842;-64
2021/03/12 03:56:30;;;;;;;3.63;1.63;;;5.30;99.90;;;3.94;100.00;99028.56;5026886;27;100033;-63
2021/03/12 03:58:59;;;;;;;2.23;0.83;;;5.50;99.90;;;4.06;100.00;99037.13;5007598;27;99997;-63
2021/03/12 04:01:26;;;;;;;4.03;1.50;;;5.60;99.90;;;4.01;100.00;99042.03;5007274;27;103456;-62
2021/03/12 04:03:58;;;;;;;6.20;1.83;;;5.50;99.90;;;3.96;100.00;99053.88;5007706;27;102443;-60
2021/03/12 04:06:28;;;;;;;2.10;1.23;;;5.60;99.90;;;3.96;100.00;99059.16;5007876;27;100197;-61
2021/03/12 04:08:56;;;;;;;4.00;1.80;;;5.40;99.90;;;3.91;100.00;99069.38;5007688;27;100285;-62
2021/03/12 04:11:23;;;;;;;3.03;1.27;;;5.50;99.90;;;3.81;100.00;99065.09;5006797;27;103131;-63
2021/03/12 04:13:53;;;;;;;5.53;2.13;;;5.40;99.90;;;3.77;100.00;99077.78;5007246;27;102552;-62
2021/03/12 04:16:23;;;;;;;2.97;1.43;;;5.50;99.90;;;3.66;100.00;99088.53;5007816;27;100036;-63
2021/03/12 04:18:50;;;;;;;4.30;1.57;;;5.40;99.90;;;3.55;100.00;99084.25;5007621;27;100165;-64
2021/03/12 04:21:19;;;;;;;3.10;1.10;;;5.30;99.90;;;3.44;100.00;99092.34;5007746;27;102231;-62
2021/03/12 04:23:54;;;;;;;1.93;1.30;;;5.10;99.90;;;3.41;100.00;99094.44;5024491;27;102901;-61
2021/03/12 04:26:21;;;;;;;3.30;1.50;;;5.20;99.90;;;3.38;100.00;99103.47;5013102;27;100145;-61
2021/03/12 04:28:48;;;;;;;2.90;0.80;;;5.10;99.90;;;3.35;100.00;99092.34;5008062;27;100222;-64
2021/03/12 04:31:15;;;;;;;2.43;1.23;;;5.10;99.90;;;3.28;100.00;99086.78;5006845;27;101407;-61
2021/03/12 04:33:43;;;;;;;2.43;1.17;;;5.10;99.90;;;3.28;100.00;99097.38;5007004;27;102614;-60
2021/03/12 04:36:11;;;;;;;3.90;1.10;;;5.00;99.90;;;3.27;100.00;99097.50;5006528;27;100168;-61
2021/03/12 04:38:43;;;;;;;4.37;1.30;;;5.10;99.90;;;3.23;100.00;99102.22;5006280;27;100181;-62
2021/03/12 04:41:12;;;;;;;2.47;1.10;;;5.00;99.90;;;3.24;100.00;99109.19;5006450;27;102993;-63
2021/03/12 04:43:40;;;;;;;4.07;1.73;;;4.80;99.90;;;3.24;100.00;99117.94;5006633;27;102412;-60
2021/03/12 04:46:07;;;;;;;1.67;1.10;;;4.90;99.90;;;3.25;100.00;99122.28;5006743;27;100208;-62
2021/03/12 04:48:42;;;;;;;4.23;1.27;;;4.80;99.90;;;3.24;100.00;99122.41;5007135;27;101885;-61
2021/03/12 04:51:11;;;;;;;2.37;1.70;;;5.40;99.90;;;3.25;100.00;99134.66;5006007;27;100336;-62
2021/03/12 04:53:40;;;;;;;4.47;1.20;;;5.00;99.90;;;3.25;100.00;99135.50;5006781;27;102472;-64
2021/03/12 04:56:08;;;;;;;4.30;1.40;;;4.90;99.90;;;3.23;100.00;99145.34;5006591;27;100186;-63
2021/03/12 04:58:39;;;;;;;1.60;1.10;;;6.10;99.90;;;3.17;100.00;99129.25;5006800;27;100366;-62
2021/03/12 05:01:08;;;;;;;5.07;0.97;;;5.00;99.90;;;3.11;100.00;99124.50;5002523;27;103162;-61
2021/03/12 05:03:37;;;;;;;1.90;0.87;;;4.80;99.90;;;3.09;100.00;99132.56;5003220;27;100454;-61
2021/03/12 05:06:05;;;;;;;5.40;1.43;;;4.80;99.90;;;3.15;100.00;99134.66;5003616;27;100093;-61
2021/03/12 05:08:37;;;;;;;5.33;0.93;;;4.80;99.90;;;3.11;100.00;99135.91;5003615;27;99951;-62
2021/03/12 05:11:17;;;;;;;1.30;0.60;;;4.80;99.90;;;3.04;100.00;99157.75;5001814;27;100520;-60
2021/03/12 05:13:52;;;;;;;3.40;0.70;;;4.80;99.90;;;2.99;100.00;99152.88;5002899;27;102635;-60
2021/03/12 05:16:23;;;;;;;1.90;0.93;;;4.70;99.90;;;2.97;100.00;99154.81;5002196;27;100283;-61
2021/03/12 05:18:51;;;;;;;4.37;1.07;;;4.80;99.90;;;3.03;100.00;99164.84;5003160;27;100199;-61
2021/03/12 05:21:18;;;;;;;2.67;0.90;;;4.50;99.90;;;3.04;100.00;99169.16;5002556;27;103228;-61
2021/03/12 05:23:45;;;;;;;2.50;1.10;;;5.50;99.90;;;3.02;100.00;99170.25;5036651;27;100390;-61
2021/03/12 05:26:11;;;;;;;2.07;1.23;;;4.80;99.90;;;3.00;100.00;99170.38;5004197;27;100110;-60
2021/03/12 05:28:39;;;;;;;3.67;1.20;;;4.70;99.90;;;3.01;100.00;99176.50;5002511;27;100088;-61
2021/03/12 05:31:05;;;;;;;2.33;1.83;;;4.60;99.90;;;3.06;100.00;99171.66;5002372;27;103829;-62
2021/03/12 05:33:32;;;;;;;3.43;2.27;;;4.80;99.90;;;3.12;100.00;99177.22;5004505;27;101329;-61
2021/03/12 05:36:05;;;;;;;7.60;2.87;;;4.60;99.90;;;3.28;100.00;99168.75;5018591;27;100379;-61
2021/03/12 05:38:32;;;;;;;3.70;2.87;;;4.90;99.90;;;3.23;100.00;99171.78;5016599;27;100472;-62
2021/03/12 05:41:02;;;;;;;3.60;3.17;;;4.90;99.90;;;3.19;100.00;99182.81;4999242;27;101455;-62
2021/03/12 05:43:29;;;;;;;5.67;3.80;;;4.90;99.90;;;3.21;100.00;99179.03;5000257;27;101508;-62
2021/03/12 05:46:00;;;;;;;5.27;3.83;;;4.90;99.90;;;3.24;100.00;99188.50;5001217;27;100148;-62
2021/03/12 05:48:28;;;;;;;5.13;3.83;;;4.30;99.90;;;3.23;100.00;99186.81;5016112;27;100274;-62
2021/03/12 05:50:58;;;;;;;6.07;3.40;;;4.80;99.90;;;3.31;100.00;99184.34;5003665;27;100704;-62
2021/03/12 05:53:25;;;;;;;11.33;4.03;;;4.90;99.90;;;3.37;100.00;99194.34;5003119;27;102177;-62
2021/03/12 05:55:53;;;;;;;5.40;3.27;;;4.80;99.90;;;3.34;100.00;99194.63;5002987;27;100106;-61
2021/03/12 05:58:22;;;;;;;4.23;2.67;;;4.80;99.90;;;3.36;100.00;99203.25;5002343;27;100398;-63
2021/03/12 06:00:49;;;;;;;6.00;2.73;;;5.80;99.90;;;3.44;100.00;99215.78;5002349;27;103055;-63
2021/03/12 06:03:17;;;;;;;5.10;2.50;;;4.80;99.90;;;3.47;100.00;99207.56;5004261;27;101240;-62
2021/03/12 06:05:48;;;;;;;4.17;1.77;;;4.80;99.90;;;3.67;100.00;99211.06;5002805;27;100583;-63
2021/03/12 06:08:17;;;;;;;2.80;2.30;;;5.00;99.90;;;3.77;100.00;99233.03;5019636;27;100179;-62
2021/03/12 06:10:45;;;;;;;3.23;1.70;;;5.10;99.90;;;3.75;100.00;99242.91;4997211;27;102115;-63
2021/03/12 06:13:16;;;;;;;2.97;1.93;;;5.20;99.90;;;3.74;100.00;99257.13;4993305;27;100368;-62
2021/03/12 06:15:47;;;;;;;3.13;1.83;;;5.10;99.90;;;3.71;100.00;99257.44;5001720;27;100284;-62
2021/03/12 06:18:25;;;;;;;4.07;2.13;;;5.30;99.90;;;3.65;100.00;99276.47;5002684;27;100618;-61
2021/03/12 06:21:00;;;;;;;3.97;1.80;;;5.10;99.90;;;3.57;100.00;99277.19;5001959;27;102816;-61
2021/03/12 06:23:36;;;;;;;4.27;2.30;;;5.30;99.90;;;3.63;100.00;99283.72;5000041;27;101058;-62
2021/03/12 06:26:13;;;;;;;3.43;1.90;;;5.30;99.90;;;3.55;100.00;99295.00;5002996;27;100153;-60
2021/03/12 06:29:08;;;;;;;2.27;2.00;;;5.20;99.90;;;3.53;100.00;99289.84;5006161;27;100073;-62
2021/03/12 06:31:58;;;;;;;2.17;1.90;;;5.10;99.90;;;3.52;100.00;99298.75;4996895;27;100318;-63
2021/03/12 06:35:00;;;;;;;3.83;2.03;;;5.10;99.90;;;3.51;100.00;99302.38;4998281;27;100374;-63
2021/03/12 06:37:47;;;;;;;4.20;2.33;;;5.00;99.90;;;3.48;100.00;99312.38;4994509;27;99907;-62
2021/03/12 06:40:31;;;;;;;5.37;2.23;;;5.20;99.90;;;3.47;100.00;99314.19;5002527;27;100393;-63
2021/03/12 06:43:21;;;;;;;8.10;2.70;;;5.10;99.90;;;3.52;100.00;99325.19;4999739;27;100726;-62
2021/03/12 06:46:02;;;;;;;2.50;2.23;;;4.80;99.90;;;3.47;100.00;99329.22;5002085;27;102841;-62
2021/03/12 06:49:00;;;;;;;4.60;2.17;;;6.00;99.90;;;3.68;100.00;99331.78;4992995;27;100289;-64
2021/03/12 06:51:35;;;;;;;7.67;2.93;;;5.10;99.90;;;3.96;100.00;99333.56;5002403;27;100336;-63
2021/03/12 06:54:09;;;;;;;9.87;3.70;;;5.10;99.90;;;3.99;100.00;99333.31;5001982;27;103008;-63
2021/03/12 06:56:48;;;;;;;2.40;1.90;;;5.20;99.90;;;4.22;100.00;99339.13;5002282;27;102686;-63
2021/03/12 06:59:30;;;;;;;3.20;2.07;;;5.60;99.90;;;4.27;100.00;99345.69;5002922;27;99903;-63
2021/03/12 07:02:12;;;;;;;2.10;1.80;;;5.70;99.90;;;4.44;100.00;99349.44;5002309;27;100642;-64
2021/03/12 07:04:55;;;;;;;3.40;1.80;;;6.00;99.90;;;4.55;100.00;99329.91;5001098;27;101578;-65
2021/03/12 07:07:54;;;;;;;3.70;1.60;;;6.20;99.90;;;4.66;100.00;99365.03;4977767;27;101673;-65
2021/03/12 07:10:39;;;;;;;5.03;1.90;;;6.40;99.90;;;4.55;100.00;99373.13;5001177;27;100735;-65
2021/03/12 07:13:21;;;;;;;3.80;1.97;;;6.50;99.90;;;4.51;100.00;99384.13;5001474;27;100301;-65
2021/03/12 07:15:55;;;;;;;2.67;1.80;;;6.40;99.90;;;4.71;100.00;99380.47;5000654;27;103270;-64
2021/03/12 07:18:29;;;;;;;3.93;1.67;;;6.50;99.90;;;4.63;100.00;99381.19;5001464;27;103079;-64
2021/03/12 07:21:04;;;;;;;2.87;1.30;;;6.60;99.90;;;4.54;100.00;99392.66;5001200;27;100189;-64
2021/03/12 07:23:37;;;;;;;3.13;1.77;;;6.70;99.90;;;4.50;100.00;99393.06;5004169;27;100247;-64
2021/03/12 07:26:08;;;;;;;1.67;1.57;;;6.60;99.90;;;4.48;100.00;99402.97;5003528;27;101463;-64
2021/03/12 07:28:37;;;;;;;2.10;1.63;;;6.50;99.90;;;4.44;100.00;99396.28;5001740;27;102709;-64
2021/03/12 07:31:25;;;;;;;3.00;1.60;;;6.60;99.90;;;4.51;100.00;99406.16;4994324;27;100150;-63
2021/03/12 07:33:56;;;;;;;1.70;1.40;;;6.50;99.90;;;4.74;100.00;99403.19;5000823;27;100133;-62
2021/03/12 07:36:30;;;;;;;2.47;1.40;;;6.60;99.90;;;4.90;100.00;99404.28;5000189;27;101255;-63
2021/03/12 07:39:06;;;;;;;2.87;1.43;;;6.60;99.90;;;5.04;100.00;99425.06;4996877;27;100953;-63
2021/03/12 07:41:34;;;;;;;2.10;1.43;;;6.80;99.90;;;5.03;100.00;99418.06;4994904;27;100428;-62
2021/03/12 07:44:22;;;;;;;2.53;1.37;;;7.00;99.90;;;5.01;100.00;99417.38;4971202;27;101880;-62
2021/03/12 07:47:24;;;;;;;5.90;1.97;;;7.00;99.90;;;5.02;100.00;99419.06;5001255;27;101260;-64
2021/03/12 07:49:51;;;;;;;1.80;1.07;;;7.10;99.90;;;5.03;100.00;99418.06;5001048;27;101122;-63
2021/03/12 07:52:48;;;;;;;2.90;1.60;;;7.30;99.90;;;5.05;100.00;99420.59;5002876;27;100201;-62
2021/03/12 07:55:53;;;;;;;3.80;1.43;;;7.20;99.90;;;5.18;100.00;99436.19;4998089;27;100404;-62
2021/03/12 07:58:56;;;;;;;2.13;1.20;;;7.30;99.90;;;5.22;100.00;99440.19;5000071;27;100799;-61
2021/03/12 08:01:55;;;;;;;3.20;1.07;;;7.30;99.90;;;5.26;100.00;99444.25;4974847;27;100484;-61
2021/03/12 08:04:47;;;;;;;2.03;1.27;;;8.00;99.90;;;5.31;100.00;99449.97;5002804;27;100166;-62
2021/03/12 08:07:34;;;;;;;1.73;1.17;;;7.30;99.90;;;5.38;100.00;99454.53;5000916;27;100246;-62
2021/03/12 08:10:17;;;;;;;2.60;1.20;;;7.40;99.90;;;5.33;100.00;99467.38;4998504;27;101484;-62
2021/03/12 08:12:59;;;;;;;5.83;1.73;;;7.50;99.90;;;5.37;100.00;99459.97;4979107;27;103176;-62
2021/03/12 08:15:35;;;;;;;4.80;1.27;;;7.40;99.90;;;5.30;100.00;99459.72;5012997;27;100598;-62
2021/03/12 08:18:26;;;;;;;3.30;1.33;;;7.30;99.90;;;5.34;100.00;99466.41;4998232;27;100309;-62
2021/03/12 08:21:37;;;;;;;3.03;1.90;;;7.40;99.90;;;5.37;100.00;99473.22;4996355;27;102145;-62
2021/03/12 08:24:46;;;;;;;2.50;1.57;;;7.60;99.90;;;5.36;100.00;99467.09;4961616;27;100896;-62
2021/03/12 08:27:45;;;;;;;2.07;1.60;;;7.20;99.90;;;5.44;100.00;99486.78;4991382;27;100217;-62
2021/03/12 08:30:48;;;;;;;2.03;1.80;;;7.50;99.90;;;5.46;100.00;99480.31;4995285;27;102350;-61
2021/03/12 08:33:35;;;;;;;2.37;1.57;;;7.40;99.90;;;5.51;100.00;99495.81;4993390;27;103078;-61
2021/03/12 08:36:27;;;;;;;3.37;1.70;;;7.30;99.90;;;5.44;100.00;99498.19;4987891;27;100957;-59
2021/03/12 08:39:29;;;;;;;2.50;1.60;;;7.30;99.90;;;5.45;100.00;99494.56;4997356;27;99920;-62
2021/03/12 08:42:16;;;;;;;3.23;1.57;;;7.50;99.90;;;5.43;100.00;99508.97;4998127;27;100446;-61
2021/03/12 08:45:07;;;;;;;1.73;1.60;;;7.40;99.90;;;5.39;100.00;99501.28;4983881;27;100366;-61
2021/03/12 08:48:04;;;;;;;2.40;1.60;;;7.50;99.90;;;5.39;100.00;99503.94;4995330;27;100383;-61
2021/03/12 08:50:31;;;;;;;3.03;1.57;;;7.30;99.90;;;5.42;100.00;99508.13;5000531;27;100267;-62
2021/03/12 08:53:01;;;;;;;2.67;1.50;;;7.40;99.90;;;5.46;100.00;99519.28;4986365;27;100148;-61
2021/03/12 08:55:46;;;;;;;1.70;1.20;;;7.20;99.90;;;5.53;100.00;99497.34;4993287;27;100199;-62
2021/03/12 08:58:21;;;;;;;2.37;1.60;;;7.30;99.90;;;5.56;100.00;99515.63;4998522;27;100308;-62
2021/03/12 09:00:54;;;;;;;1.80;1.13;;;7.30;99.90;;;5.60;100.00;99500.25;4997999;27;100339;-60
2021/03/12 09:03:37;;;;;;;2.57;1.33;;;7.50;99.90;;;5.62;100.00;99511.56;4987976;27;100427;-61
2021/03/12 09:06:25;;;;;;;1.60;1.37;;;7.40;99.90;;;5.60;100.00;99511.69;4994642;27;103040;-61
2021/03/12 09:09:04;;;;;;;3.27;1.70;;;7.40;99.90;;;5.56;100.00;99512.16;4993784;27;101624;-61
2021/03/12 09:11:56;;;;;;;3.00;1.70;;;7.50;99.90;;;5.60;100.00;99514.34;4994291;27;100344;-61
2021/03/12 09:14:25;;;;;;;3.47;1.63;;;7.50;99.90;;;5.63;100.00;99516.72;5000336;27;100249;-62
2021/03/12 09:16:59;;;;;;;3.20;1.50;;;8.30;99.90;;;5.65;100.00;99520.06;4999624;27;102889;-61
2021/03/12 09:19:42;;;;;;;2.20;1.60;;;8.50;99.90;;;5.78;100.00;99515.25;4991920;27;102119;-61
2021/03/12 09:22:22;;;;;;;2.97;1.53;;;7.60;99.90;;;6.00;100.00;99514.06;4987440;27;100267;-61
2021/03/12 09:24:53;;;;;;;4.17;1.57;;;7.60;99.90;;;6.09;100.00;99488.44;4992392;27;100675;-61
2021/03/12 09:27:21;;;;;;;4.77;1.70;;;7.80;99.90;;;6.32;100.00;99516.25;4983921;27;101539;-63
2021/03/12 09:30:02;;;;;;;3.33;1.57;;;7.80;99.90;;;6.66;100.00;99510.28;4999384;27;103416;-60
2021/03/12 09:32:38;;;;;;;2.50;1.40;;;8.20;99.90;;;6.62;100.00;99507.09;4991369;27;100155;-61
2021/03/12 09:35:19;;;;;;;2.77;1.90;;;8.40;99.90;;;6.62;100.00;99519.53;4999751;27;100505;-61
2021/03/12 09:37:52;;;;;;;2.20;1.50;;;8.60;99.90;;;7.08;100.00;99510.47;4998681;27;102649;-61
2021/03/12 09:40:41;;;;;;;3.80;1.17;;;8.80;99.90;;;7.10;100.00;99517.31;5000180;27;100920;-62
2021/03/12 09:43:31;;;;;;;2.73;1.47;;;9.10;99.90;;;7.14;100.00;99508.03;4995510;27;100065;-62
2021/03/12 09:46:06;;;;;;;3.53;1.13;;;9.30;99.90;;;7.02;100.00;99514.59;5000049;27;100312;-63
2021/03/12 09:48:44;;;;;;;5.17;1.30;;;9.50;99.90;;;6.91;100.00;99520.16;4999820;27;103014;-61
2021/03/12 09:51:25;;;;;;;2.20;1.47;;;9.30;99.10;;;6.79;100.00;99508.91;4993758;27;102924;-62
2021/03/12 09:53:54;;;;;;;2.70;1.30;;;9.30;97.90;;;6.81;100.00;99519.38;4984238;27;100876;-62
2021/03/12 09:56:29;;;;;;;3.00;1.23;;;9.40;98.50;;;6.80;100.00;99525.69;4989400;27;100197;-59
2021/03/12 09:59:04;;;;;;;4.10;1.50;;;9.20;97.80;;;6.80;100.00;99526.53;5002106;27;100438;-63
2021/03/12 10:02:03;;;;;;;1.90;1.70;;;9.00;97.90;;;6.83;100.00;99526.22;5007563;27;100712;-61
2021/03/12 10:05:06;;;;;;;3.57;2.00;;;9.10;97.70;;;6.70;100.00;99517.78;4997581;27;100317;-62
2021/03/12 10:07:53;;;;;;;3.47;1.63;;;9.00;95.70;;;6.62;100.00;99531.00;5002885;27;100270;-61
2021/03/12 10:10:35;;;;;;;3.57;1.70;;;8.80;94.80;;;6.56;100.00;99536.09;5001904;27;101576;-62
2021/03/12 10:13:06;;;;;;;2.90;1.70;;;8.90;95.40;;;6.51;100.00;99533.06;5023077;27;100207;-62
2021/03/12 10:15:41;;;;;;;5.67;1.93;;;8.70;96.20;;;6.46;100.00;99549.44;5002334;27;100060;-61
2021/03/12 10:18:26;;;;;;;3.50;1.60;;;8.70;95.50;;;6.43;100.00;99544.41;5017113;27;100054;-62
2021/03/12 10:20:53;;;;;;;2.87;1.80;;;8.60;96.10;;;6.38;100.00;99538.75;5021411;27;100895;-62
2021/03/12 10:23:25;;;;;;;3.77;1.77;;;8.40;97.10;;;6.37;100.00;99537.91;5021315;27;100555;-60
2021/03/12 10:25:52;;;;;;;2.10;1.33;;;8.50;96.40;;;6.38;100.00;99546.72;5021387;27;100046;-61
2021/03/12 10:28:20;;;;;;;3.43;2.30;;;8.40;96.00;;;6.42;100.00;99553.41;5020816;27;100295;-62
2021/03/12 10:30:50;;;;;;;3.93;1.80;;;8.40;97.30;;;6.42;100.00;99546.28;5020910;27;101868;-62
2021/03/12 10:33:21;;;;;;;4.37;2.03;;;8.40;97.10;;;6.46;100.00;99552.09;5021524;27;100894;-62
2021/03/12 10:35:50;;;;;;;4.37;2.20;;;8.70;97.90;;;6.44;100.00;99546.09;5021591;27;100607;-62
2021/03/12 10:38:21;;;;;;;3.33;1.83;;;8.40;97.70;;;6.42;100.00;99545.44;5024633;27;100239;-61
2021/03/12 10:40:50;;;;;;;4.20;2.07;;;8.30;98.30;;;6.34;100.00;99547.97;5005458;27;103793;-60
2021/03/12 10:43:19;;;;;;;2.50;1.70;;;9.50;99.90;;;6.30;100.00;99550.13;5024737;27;100156;-60
2021/03/12 10:45:49;;;;;;;4.80;2.30;;;8.40;99.90;;;6.26;100.00;99554.06;5024512;27;100301;-63
2021/03/12 10:48:18;;;;;;;4.03;1.97;;;8.20;99.90;;;6.22;100.00;99554.47;5024938;27;100052;-63
2021/03/12 10:50:52;;;;;;;3.13;1.87;;;8.30;99.90;;;6.25;100.00;99563.00;5023856;27;101305;-61
2021/03/12 10:53:18;;;;;;;2.90;1.50;;;8.00;99.90;;;6.31;100.00;99554.41;5024989;27;100684;-62